createdAt,value
2018-09-30T00:01:50.701Z,7.90
2018-09-30T00:04:19.179Z,7.80
2018-09-30T00:06:48.094Z,7.80
2018-09-30T00:09:16.646Z,7.60
2018-09-30T00:11:45.136Z,7.60
2018-09-30T00:14:13.637Z,7.50
2018-09-30T00:16:42.105Z,7.40
2018-09-30T00:19:10.586Z,7.40
2018-09-30T00:21:39.094Z,7.30
2018-09-30T00:24:12.866Z,7.30
2018-09-30T00:26:46.783Z,7.30
2018-09-30T00:29:15.271Z,7.20
2018-09-30T00:31:43.802Z,7.30
2018-09-30T00:34:17.470Z,7.30
2018-09-30T00:36:46.098Z,7.30
2018-09-30T00:39:14.601Z,7.30
2018-09-30T00:41:43.080Z,7.30
2018-09-30T00:44:11.652Z,7.30
2018-09-30T00:46:40.147Z,7.20
2018-09-30T00:49:08.634Z,7.20
2018-09-30T00:51:37.144Z,7.10
2018-09-30T00:54:05.616Z,7.10
2018-09-30T00:56:34.081Z,7.10
2018-09-30T00:59:02.597Z,7.00
2018-09-30T01:01:31.103Z,7.00
2018-09-30T01:03:59.589Z,7.00
2018-09-30T01:06:28.064Z,7.10
2018-09-30T01:08:56.529Z,7.00
2018-09-30T01:11:25.037Z,7.00
2018-09-30T01:13:53.483Z,6.90
2018-09-30T01:16:22.077Z,6.80
2018-09-30T01:18:50.537Z,6.70
2018-09-30T01:21:18.994Z,6.70
2018-09-30T01:23:47.446Z,6.60
2018-09-30T01:26:15.927Z,6.60
2018-09-30T01:28:44.375Z,6.60
2018-09-30T01:31:12.837Z,6.50
2018-09-30T01:33:41.307Z,6.50
2018-09-30T01:36:09.794Z,6.50
2018-09-30T01:38:38.315Z,6.40
2018-09-30T01:41:06.890Z,6.40
2018-09-30T01:43:35.392Z,6.30
2018-09-30T01:46:03.854Z,6.30
2018-09-30T01:48:32.337Z,6.30
2018-09-30T01:51:00.820Z,6.30
2018-09-30T01:53:29.296Z,6.20
2018-09-30T01:55:57.809Z,6.20
2018-09-30T01:58:26.327Z,6.10
2018-09-30T02:00:54.786Z,6.10
2018-09-30T02:03:23.233Z,6.10
2018-09-30T02:05:51.734Z,6.10
2018-09-30T02:08:20.215Z,6.00
2018-09-30T02:10:48.669Z,6.00
2018-09-30T02:13:17.153Z,6.00
2018-09-30T02:15:45.641Z,5.90
2018-09-30T02:18:14.127Z,5.90
2018-09-30T02:20:42.597Z,5.80
2018-09-30T02:23:11.079Z,5.80
2018-09-30T02:25:39.562Z,5.80
2018-09-30T02:28:08.018Z,5.80
2018-09-30T02:30:36.525Z,5.80
2018-09-30T02:33:04.986Z,5.80
2018-09-30T02:35:33.446Z,5.70
2018-09-30T02:38:01.936Z,5.60
2018-09-30T02:40:30.726Z,5.70
2018-09-30T02:42:59.210Z,5.60
2018-09-30T02:45:27.747Z,5.60
2018-09-30T02:47:56.219Z,5.60
2018-09-30T02:50:24.717Z,5.50
2018-09-30T02:52:53.212Z,5.50
2018-09-30T02:55:21.691Z,5.40
2018-09-30T02:57:50.164Z,5.40
2018-09-30T03:00:18.661Z,5.30
2018-09-30T03:02:47.129Z,5.20
2018-09-30T03:05:15.618Z,5.20
2018-09-30T03:07:49.362Z,5.20
2018-09-30T03:10:17.828Z,5.20
2018-09-30T03:12:46.303Z,5.10
2018-09-30T03:15:14.825Z,5.10
2018-09-30T03:17:43.314Z,5.20
2018-09-30T03:20:11.844Z,5.20
2018-09-30T03:22:40.316Z,5.20
2018-09-30T03:25:08.780Z,5.20
2018-09-30T03:27:37.228Z,5.20
2018-09-30T03:30:05.793Z,5.20
2018-09-30T03:32:34.300Z,5.20
2018-09-30T03:35:02.774Z,5.20
2018-09-30T03:37:31.241Z,5.30
2018-09-30T03:39:59.737Z,5.30
2018-09-30T03:42:28.199Z,5.40
2018-09-30T03:44:56.649Z,5.40
2018-09-30T03:47:25.134Z,5.40
2018-09-30T03:49:53.589Z,5.30
2018-09-30T03:52:22.065Z,5.40
2018-09-30T03:54:50.527Z,5.30
2018-09-30T03:57:19.037Z,5.30
2018-09-30T03:59:47.504Z,5.30
2018-09-30T04:02:15.962Z,5.30
2018-09-30T04:04:44.445Z,5.30
2018-09-30T04:07:12.931Z,5.20
2018-09-30T04:09:41.481Z,5.20
2018-09-30T04:12:09.889Z,5.30
2018-09-30T04:14:38.401Z,5.20
2018-09-30T04:17:06.910Z,5.30
2018-09-30T04:19:35.381Z,5.30
2018-09-30T04:22:03.902Z,5.30
2018-09-30T04:24:32.357Z,5.30
2018-09-30T04:27:00.851Z,5.30
2018-09-30T04:29:29.313Z,5.30
2018-09-30T04:31:57.772Z,5.30
2018-09-30T04:34:26.212Z,5.20
2018-09-30T04:36:54.650Z,5.20
2018-09-30T04:39:23.182Z,5.20
2018-09-30T04:41:51.661Z,5.30
2018-09-30T04:44:20.137Z,5.20
2018-09-30T04:46:48.586Z,5.20
2018-09-30T04:49:17.061Z,5.20
2018-09-30T04:51:45.526Z,5.20
2018-09-30T04:54:14.007Z,5.10
2018-09-30T04:56:42.478Z,5.00
2018-09-30T04:59:10.954Z,5.00
2018-09-30T05:01:39.420Z,4.90
2018-09-30T05:04:07.885Z,4.80
2018-09-30T05:06:36.362Z,4.70
2018-09-30T05:09:06.158Z,4.70
2018-09-30T05:11:34.626Z,4.70
2018-09-30T05:14:03.101Z,4.70
2018-09-30T05:16:31.713Z,4.70
2018-09-30T05:19:00.032Z,4.70
2018-09-30T05:21:28.573Z,4.70
2018-09-30T05:23:57.089Z,4.70
2018-09-30T05:26:25.610Z,4.60
2018-09-30T05:28:54.090Z,4.60
2018-09-30T05:31:22.721Z,4.60
2018-09-30T05:33:51.101Z,4.50
2018-09-30T05:36:19.582Z,4.60
2018-09-30T05:38:48.032Z,4.50
2018-09-30T05:41:16.516Z,4.50
2018-09-30T05:43:44.973Z,4.60
2018-09-30T05:46:13.459Z,4.60
2018-09-30T05:48:41.933Z,4.70
2018-09-30T05:51:10.420Z,4.60
2018-09-30T05:53:38.871Z,4.70
2018-09-30T05:56:07.313Z,4.90
2018-09-30T05:58:35.814Z,5.10
2018-09-30T06:01:04.340Z,5.50
2018-09-30T06:03:32.777Z,6.10
2018-09-30T06:06:01.220Z,6.70
2018-09-30T06:08:29.888Z,7.50
2018-09-30T06:10:58.352Z,8.30
2018-09-30T06:13:26.852Z,9.10
2018-09-30T06:15:55.569Z,9.80
2018-09-30T06:18:23.992Z,10.40
2018-09-30T06:20:52.481Z,10.70
2018-09-30T06:23:27.670Z,11.20
2018-09-30T06:25:56.144Z,12.10
2018-09-30T06:28:24.626Z,12.80
2018-09-30T06:30:53.406Z,13.20
2018-09-30T06:33:21.874Z,13.00
2018-09-30T06:35:50.334Z,13.90
2018-09-30T06:38:18.845Z,14.30
2018-09-30T06:40:47.453Z,14.70
2018-09-30T06:43:15.972Z,15.20
2018-09-30T06:45:44.425Z,16.10
2018-09-30T06:48:12.898Z,16.30
2018-09-30T06:50:41.391Z,16.40
2018-09-30T06:53:09.833Z,16.40
2018-09-30T06:55:38.303Z,16.40
2018-09-30T06:58:06.820Z,15.90
2018-09-30T07:00:35.402Z,16.60
2018-09-30T07:03:03.875Z,17.10
2018-09-30T07:05:32.398Z,17.30
2018-09-30T07:08:00.891Z,17.30
2018-09-30T07:10:29.421Z,17.40
2018-09-30T07:12:57.973Z,17.80
2018-09-30T07:15:26.458Z,17.70
2018-09-30T07:17:54.934Z,17.60
2018-09-30T07:20:23.407Z,17.90
2018-09-30T07:22:51.975Z,18.20
2018-09-30T07:25:20.427Z,18.60
2018-09-30T07:27:48.894Z,18.80
2018-09-30T07:30:17.382Z,19.20
2018-09-30T07:32:45.838Z,19.60
2018-09-30T07:35:14.349Z,19.60
2018-09-30T07:37:42.808Z,19.50
2018-09-30T07:40:11.286Z,20.50
2018-09-30T07:42:39.750Z,20.70
2018-09-30T07:45:08.230Z,20.30
2018-09-30T07:47:36.707Z,20.40
2018-09-30T07:50:05.210Z,20.80
2018-09-30T07:52:33.742Z,20.40
2018-09-30T07:55:08.525Z,20.30
2018-09-30T07:57:37.008Z,20.70
2018-09-30T08:00:06.445Z,21.20
2018-09-30T08:02:34.929Z,21.40
2018-09-30T08:05:03.446Z,20.80
2018-09-30T08:07:31.898Z,20.40
2018-09-30T08:10:00.379Z,20.40
2018-09-30T08:12:28.833Z,21.40
2018-09-30T08:14:57.295Z,22.20
2018-09-30T08:17:25.773Z,23.00
2018-09-30T08:19:54.215Z,23.40
2018-09-30T08:22:22.690Z,23.90
2018-09-30T08:24:51.141Z,24.30
2018-09-30T08:27:19.663Z,24.20
2018-09-30T08:29:48.207Z,25.00
2018-09-30T08:32:16.709Z,24.50
2018-09-30T08:34:45.227Z,24.30
2018-09-30T08:37:18.206Z,24.80
2018-09-30T08:39:46.756Z,25.70
2018-09-30T08:42:15.616Z,26.30
2018-09-30T08:44:44.059Z,25.60
2018-09-30T08:47:12.551Z,25.00
2018-09-30T08:49:41.028Z,25.40
2018-09-30T08:52:09.475Z,26.20
2018-09-30T08:54:37.965Z,26.40
2018-09-30T08:57:06.486Z,27.10
2018-09-30T08:59:35.003Z,27.00
2018-09-30T09:02:03.611Z,27.00
2018-09-30T09:04:32.135Z,26.90
2018-09-30T09:07:00.626Z,26.90
2018-09-30T09:09:29.098Z,27.30
2018-09-30T09:11:57.623Z,27.20
2018-09-30T09:14:26.079Z,27.50
2018-09-30T09:16:54.542Z,26.90
2018-09-30T09:19:23.023Z,26.40
2018-09-30T09:21:51.489Z,26.80
2018-09-30T09:24:19.994Z,28.10
2018-09-30T09:26:48.443Z,28.80
2018-09-30T09:29:16.940Z,28.50
2018-09-30T09:31:45.539Z,28.30
2018-09-30T09:34:13.894Z,28.90
2018-09-30T09:36:42.386Z,27.50
2018-09-30T09:39:10.965Z,27.60
2018-09-30T09:41:39.713Z,27.30
2018-09-30T09:44:08.230Z,27.70
2018-09-30T09:46:36.705Z,28.30
2018-09-30T09:49:05.280Z,29.20
2018-09-30T09:54:01.910Z,30.30
2018-09-30T09:56:30.362Z,30.80
2018-09-30T09:58:58.916Z,30.60
2018-09-30T10:01:27.311Z,30.40
2018-09-30T10:06:23.960Z,30.60
2018-09-30T10:08:52.435Z,29.70
2018-09-30T10:11:20.873Z,27.60
2018-09-30T10:13:49.340Z,26.40
2018-09-30T10:16:17.906Z,27.10
2018-09-30T10:18:46.390Z,26.00
2018-09-30T10:21:14.850Z,26.70
2018-09-30T10:23:43.370Z,27.20
2018-09-30T10:26:11.953Z,26.40
2018-09-30T10:28:40.552Z,26.50
2018-09-30T10:31:09.026Z,26.60
2018-09-30T10:33:37.675Z,27.20
2018-09-30T10:36:06.159Z,27.70
2018-09-30T10:38:34.766Z,28.00
2018-09-30T10:41:03.138Z,28.50
2018-09-30T10:43:31.673Z,28.90
2018-09-30T10:46:00.121Z,29.00
2018-09-30T10:48:28.910Z,29.30
2018-09-30T10:50:57.361Z,29.20
2018-09-30T10:53:25.798Z,29.60
2018-09-30T10:55:54.265Z,30.00
2018-09-30T10:58:22.689Z,29.60
2018-09-30T11:00:51.162Z,29.50
2018-09-30T11:03:19.618Z,29.10
2018-09-30T11:05:48.068Z,28.70
2018-09-30T11:10:44.836Z,28.50
2018-09-30T11:13:13.344Z,28.10
2018-09-30T11:15:41.809Z,28.60
2018-09-30T11:18:10.287Z,29.10
2018-09-30T11:20:38.713Z,29.20
2018-09-30T11:23:07.194Z,29.30
2018-09-30T11:25:35.624Z,29.20
2018-09-30T11:28:04.089Z,29.30
2018-09-30T11:30:32.538Z,29.10
2018-09-30T11:33:01.015Z,29.10
2018-09-30T11:35:29.472Z,28.50
2018-09-30T11:37:57.983Z,27.10
2018-09-30T11:40:26.504Z,26.90
2018-09-30T11:42:55.008Z,27.00
2018-09-30T11:45:23.442Z,27.20
2018-09-30T11:47:51.889Z,26.30
2018-09-30T11:50:20.353Z,26.60
2018-09-30T11:52:48.965Z,26.60
2018-09-30T11:55:17.438Z,26.90
2018-09-30T11:57:45.908Z,27.30
2018-09-30T12:00:14.378Z,27.80
2018-09-30T12:02:42.834Z,28.40
2018-09-30T12:05:11.303Z,28.20
2018-09-30T12:07:39.765Z,28.20
2018-09-30T12:10:08.302Z,27.90
2018-09-30T12:12:37.345Z,28.30
2018-09-30T12:15:05.834Z,28.60
2018-09-30T12:17:34.314Z,28.50
2018-09-30T12:20:02.825Z,28.40
2018-09-30T12:22:31.496Z,28.00
2018-09-30T12:24:59.949Z,27.80
2018-09-30T12:27:28.407Z,28.00
2018-09-30T12:29:56.840Z,28.20
2018-09-30T12:32:25.324Z,27.90
2018-09-30T12:34:53.753Z,28.00
2018-09-30T12:37:22.273Z,27.40
2018-09-30T12:39:50.735Z,26.90
2018-09-30T12:42:19.222Z,27.10
2018-09-30T12:44:47.681Z,27.50
2018-09-30T12:47:16.150Z,28.00
2018-09-30T12:49:44.629Z,27.80
2018-09-30T12:52:13.073Z,26.90
2018-09-30T12:54:41.549Z,27.00
2018-09-30T12:57:09.985Z,27.40
2018-09-30T12:59:38.590Z,27.40
2018-09-30T13:02:07.057Z,27.40
2018-09-30T13:04:35.552Z,26.70
2018-09-30T13:07:04.033Z,27.00
2018-09-30T13:09:32.495Z,27.40
2018-09-30T13:12:01.003Z,27.70
2018-09-30T13:14:29.454Z,27.40
2018-09-30T13:16:57.900Z,26.90
2018-09-30T13:19:26.745Z,26.70
2018-09-30T13:21:55.793Z,26.50
2018-09-30T13:24:24.257Z,26.70
2018-09-30T13:26:52.739Z,27.30
2018-09-30T13:29:21.184Z,27.10
2018-09-30T13:31:49.675Z,26.20
2018-09-30T13:34:18.120Z,25.80
2018-09-30T13:36:46.604Z,25.50
2018-09-30T13:39:15.362Z,25.10
2018-09-30T13:41:43.806Z,24.80
2018-09-30T13:44:12.246Z,25.40
2018-09-30T13:46:40.716Z,26.10
2018-09-30T13:49:09.175Z,26.40
2018-09-30T13:51:37.641Z,26.20
2018-09-30T13:54:06.259Z,25.40
2018-09-30T13:56:34.787Z,25.00
2018-09-30T13:59:03.279Z,24.90
2018-09-30T14:01:31.742Z,24.90
2018-09-30T14:04:00.220Z,24.60
2018-09-30T14:06:28.686Z,24.50
2018-09-30T14:08:57.154Z,24.00
2018-09-30T14:11:25.631Z,24.20
2018-09-30T14:13:54.201Z,24.60
2018-09-30T14:16:22.652Z,24.40
2018-09-30T14:18:51.085Z,24.10
2018-09-30T14:21:19.566Z,23.50
2018-09-30T14:23:48.020Z,23.10
2018-09-30T14:26:16.505Z,22.90
2018-09-30T14:28:44.956Z,23.00
2018-09-30T14:31:13.454Z,22.40
2018-09-30T14:33:42.032Z,21.00
2018-09-30T14:36:10.537Z,20.40
2018-09-30T14:38:38.996Z,20.00
2018-09-30T14:41:07.555Z,19.90
2018-09-30T14:43:35.998Z,20.00
2018-09-30T14:46:04.472Z,19.70
2018-09-30T14:48:32.983Z,19.60
2018-09-30T14:51:01.427Z,19.70
2018-09-30T14:53:29.901Z,19.90
2018-09-30T14:55:58.377Z,19.90
2018-09-30T14:58:26.856Z,19.90
2018-09-30T15:03:23.824Z,19.70
2018-09-30T15:05:52.318Z,19.50
2018-09-30T15:08:20.813Z,19.40
2018-09-30T15:10:49.325Z,19.40
2018-09-30T15:13:17.786Z,19.40
2018-09-30T15:15:46.230Z,19.40
2018-09-30T15:18:14.708Z,19.10
2018-09-30T15:20:43.152Z,19.00
2018-09-30T15:23:11.624Z,18.80
2018-09-30T15:25:40.137Z,18.70
2018-09-30T15:28:08.639Z,18.70
2018-09-30T15:30:37.107Z,18.60
2018-09-30T15:33:05.613Z,18.60
2018-09-30T15:35:34.084Z,18.50
2018-09-30T15:38:02.845Z,18.50
2018-09-30T15:40:31.338Z,18.60
2018-09-30T15:42:59.872Z,18.10
2018-09-30T15:45:28.208Z,17.90
2018-09-30T15:47:56.645Z,17.80
2018-09-30T15:50:25.106Z,17.80
2018-09-30T15:52:53.577Z,17.70
2018-09-30T15:55:22.056Z,17.60
2018-09-30T15:57:50.516Z,17.50
2018-09-30T16:00:18.985Z,17.40
2018-09-30T16:02:47.464Z,17.40
2018-09-30T16:05:15.918Z,17.40
2018-09-30T16:07:45.274Z,17.40
2018-09-30T16:10:13.743Z,17.30
2018-09-30T16:12:42.177Z,17.30
2018-09-30T16:15:10.683Z,17.20
2018-09-30T16:17:39.186Z,17.10
2018-09-30T16:20:07.729Z,17.00
2018-09-30T16:22:36.185Z,16.90
2018-09-30T16:25:04.681Z,16.80
2018-09-30T16:27:33.137Z,16.80
2018-09-30T16:30:01.652Z,16.70
2018-09-30T16:32:30.141Z,16.60
2018-09-30T16:34:58.684Z,16.50
2018-09-30T16:37:27.133Z,16.40
2018-09-30T16:39:55.584Z,16.40
2018-09-30T16:42:24.294Z,16.30
2018-09-30T16:44:52.767Z,16.30
2018-09-30T16:47:21.256Z,16.10
2018-09-30T16:49:49.729Z,16.10
2018-09-30T16:52:18.218Z,15.90
2018-09-30T16:54:46.689Z,15.80
2018-09-30T16:57:15.152Z,15.70
2018-09-30T16:59:43.659Z,15.60
2018-09-30T17:02:12.095Z,15.50
2018-09-30T17:04:40.552Z,15.40
2018-09-30T17:07:09.008Z,15.30
2018-09-30T17:09:37.464Z,15.20
2018-09-30T17:12:05.924Z,15.10
2018-09-30T17:14:34.368Z,15.00
2018-09-30T17:17:02.881Z,14.90
2018-09-30T17:19:31.375Z,14.80
2018-09-30T17:21:59.860Z,14.70
2018-09-30T17:24:28.335Z,14.50
2018-09-30T17:26:56.768Z,14.40
2018-09-30T17:29:25.248Z,14.40
2018-09-30T17:31:53.786Z,14.30
2018-09-30T17:34:22.248Z,14.20
2018-09-30T17:36:50.683Z,14.10
2018-09-30T17:39:19.153Z,14.10
2018-09-30T17:41:47.585Z,14.00
2018-09-30T17:44:16.073Z,13.90
2018-09-30T17:46:44.550Z,13.90
2018-09-30T17:49:12.997Z,13.80
2018-09-30T17:51:41.493Z,13.70
2018-09-30T17:54:09.947Z,13.60
2018-09-30T17:56:38.435Z,13.60
2018-09-30T17:59:06.883Z,13.40
2018-09-30T18:01:35.333Z,13.30
2018-09-30T18:04:03.926Z,13.20
2018-09-30T18:06:32.334Z,13.20
2018-09-30T18:09:00.800Z,13.20
2018-09-30T18:11:29.234Z,13.10
2018-09-30T18:13:57.719Z,13.10
2018-09-30T18:16:26.166Z,13.00
2018-09-30T18:18:54.609Z,12.90
2018-09-30T18:21:23.110Z,12.80
2018-09-30T18:23:51.644Z,12.70
2018-09-30T18:26:20.034Z,12.70
2018-09-30T18:28:48.500Z,12.60
2018-09-30T18:31:17.082Z,12.60
2018-09-30T18:33:45.531Z,12.50
2018-09-30T18:36:14.620Z,12.50
2018-09-30T18:38:43.140Z,12.50
2018-09-30T18:41:11.575Z,12.40
2018-09-30T18:43:40.085Z,12.30
2018-09-30T18:46:08.559Z,12.20
2018-09-30T18:48:43.449Z,12.20
2018-09-30T18:51:11.952Z,12.00
2018-09-30T18:53:40.453Z,11.90
2018-09-30T18:56:08.966Z,11.90
2018-09-30T18:58:37.401Z,11.80
2018-09-30T19:01:06.003Z,11.70
2018-09-30T19:03:34.506Z,11.60
2018-09-30T19:06:03.032Z,11.70
2018-09-30T19:08:31.526Z,11.60
2018-09-30T19:11:00.019Z,11.50
2018-09-30T19:13:28.523Z,11.40
2018-09-30T19:15:57.365Z,11.40
2018-09-30T19:18:25.558Z,11.30
2018-09-30T19:20:54.038Z,11.30
2018-09-30T19:23:22.515Z,11.30
2018-09-30T19:25:51.052Z,11.20
2018-09-30T19:28:19.581Z,11.20
2018-09-30T19:30:48.100Z,11.20
2018-09-30T19:33:16.577Z,11.20
2018-09-30T19:35:45.154Z,11.10
2018-09-30T19:38:13.666Z,11.20
2018-09-30T19:40:42.146Z,11.20
2018-09-30T19:43:10.610Z,11.20
2018-09-30T19:45:39.144Z,11.20
2018-09-30T19:48:07.616Z,11.20
2018-09-30T19:50:36.087Z,11.30
2018-09-30T19:53:04.580Z,11.30
2018-09-30T19:55:33.063Z,11.20
2018-09-30T19:58:01.528Z,11.20
2018-09-30T20:00:30.066Z,11.20
2018-09-30T20:02:59.098Z,11.20
2018-09-30T20:05:28.316Z,11.30
2018-09-30T20:07:56.791Z,11.30
2018-09-30T20:10:25.319Z,11.40
2018-09-30T20:12:53.743Z,11.40
2018-09-30T20:15:22.194Z,11.50
2018-09-30T20:17:52.569Z,11.60
2018-09-30T20:20:21.019Z,11.70
2018-09-30T20:22:49.568Z,11.80
2018-09-30T20:25:18.035Z,11.90
2018-09-30T20:27:46.522Z,11.80
2018-09-30T20:30:14.968Z,11.80
2018-09-30T20:32:43.502Z,11.80
2018-09-30T20:35:12.190Z,11.70
2018-09-30T20:37:40.666Z,11.70
2018-09-30T20:40:09.150Z,11.60
2018-09-30T20:42:37.618Z,11.60
2018-09-30T20:45:06.095Z,11.50
2018-09-30T20:47:34.588Z,11.50
2018-09-30T20:50:03.054Z,11.50
2018-09-30T20:52:31.593Z,11.40
2018-09-30T20:55:00.417Z,11.40
2018-09-30T20:57:29.111Z,11.30
2018-09-30T20:59:57.613Z,11.20
2018-09-30T21:02:26.146Z,11.30
2018-09-30T21:04:54.634Z,11.20
2018-09-30T21:07:23.144Z,11.20
2018-09-30T21:09:51.889Z,11.20
2018-09-30T21:12:20.687Z,11.20
2018-09-30T21:14:49.518Z,11.20
2018-09-30T21:17:18.148Z,11.20
2018-09-30T21:19:46.678Z,11.20
2018-09-30T21:22:15.132Z,11.20
2018-09-30T21:24:43.628Z,11.10
2018-09-30T21:27:12.194Z,11.10
2018-09-30T21:29:40.667Z,11.10
2018-09-30T21:32:09.168Z,11.10
2018-09-30T21:34:37.662Z,11.20
2018-09-30T21:37:06.143Z,11.30
2018-09-30T21:39:34.610Z,11.40
2018-09-30T21:42:03.406Z,11.40
2018-09-30T21:44:31.878Z,11.50
2018-09-30T21:47:00.359Z,11.50
2018-09-30T21:49:28.859Z,11.50
2018-09-30T21:51:57.346Z,11.60
2018-09-30T21:54:25.889Z,11.60
2018-09-30T21:56:54.348Z,11.60
2018-09-30T21:59:22.805Z,11.60
2018-09-30T22:01:51.308Z,11.60
2018-09-30T22:04:19.735Z,11.50
2018-09-30T22:06:48.204Z,11.50
2018-09-30T22:09:16.701Z,11.50
2018-09-30T22:11:45.172Z,11.40
2018-09-30T22:14:13.671Z,11.50
2018-09-30T22:16:42.141Z,11.50
2018-09-30T22:19:10.660Z,11.50
2018-09-30T22:21:39.087Z,11.50
2018-09-30T22:24:07.650Z,11.60
2018-09-30T22:26:36.157Z,11.60
2018-09-30T22:29:04.637Z,11.60
2018-09-30T22:31:33.144Z,11.60
2018-09-30T22:34:01.610Z,11.60
2018-09-30T22:36:30.142Z,11.70
2018-09-30T22:38:58.628Z,11.70
2018-09-30T22:41:27.099Z,11.70
2018-09-30T22:43:55.594Z,11.70
2018-09-30T22:46:24.039Z,11.70
2018-09-30T22:48:52.479Z,11.70
2018-09-30T22:51:20.970Z,11.70
2018-09-30T22:53:49.434Z,11.70
2018-09-30T22:56:17.973Z,11.70
2018-09-30T22:58:46.431Z,11.60
2018-09-30T23:01:14.898Z,11.60
2018-09-30T23:03:43.350Z,11.60
2018-09-30T23:06:11.822Z,11.60
2018-09-30T23:08:40.298Z,11.70
2018-09-30T23:11:08.749Z,11.70
2018-09-30T23:13:37.211Z,11.60
2018-09-30T23:16:05.739Z,11.60
2018-09-30T23:18:34.187Z,11.60
2018-09-30T23:21:02.696Z,11.50
2018-09-30T23:23:31.159Z,11.40
2018-09-30T23:25:59.628Z,11.40
2018-09-30T23:28:28.091Z,11.50
2018-09-30T23:30:56.596Z,11.40
2018-09-30T23:33:25.074Z,11.40
2018-09-30T23:35:53.543Z,11.30
2018-09-30T23:38:21.984Z,11.30
2018-09-30T23:40:56.983Z,11.30
2018-09-30T23:43:25.456Z,11.30
2018-09-30T23:45:53.947Z,11.30
2018-09-30T23:48:22.406Z,11.40
2018-09-30T23:50:50.883Z,11.40
2018-09-30T23:53:19.449Z,11.50
2018-09-30T23:55:47.964Z,11.50
2018-09-30T23:58:16.437Z,11.50
